Latest Weather Observations for Moree

IDN60801

Issued at 7:32 pm EST Monday 6 July 2015 (issued every 30 minutes, with the page automatically refreshed every 10 minutes)

About weather observations | Map of weather stations | Latest weather observations for NSW | Other Formats
Station Details ID: 053115 Name: MOREE AERO Lat: -29.49 Lon: 149.85 Height: 213.0 m
Data from the previous 72 hours. | See also: Recent months at Moree
Date/Time
EST
Temp
°C
App
Temp
°C
Dew
Point
Rel
Hum
%
Delta-T
°C
Wind Press
QNH
hPa
Press
MSL
hPa
Rain
since 9 am
mm
Dir
 
Spd
km/h
Gust
km/h
Spd
kts
Gust
kts
06/07:30pm 10.2 6.0 3.9 65 2.8 SSW 15 15 8 8 1018.7 1018.8 0.0
06/07:00pm 10.0 5.8 4.0 66 2.7 SSW 15 15 8 8 1018.5 1018.6 0.0
06/06:30pm 10.9 6.8 4.6 65 2.9 SSW 15 15 8 8 1018.3 1018.4 0.0
06/06:00pm 11.7 8.0 4.4 61 3.3 SSW 13 13 7 7 1018.1 1018.2 0.0
06/05:30pm 13.3 9.3 4.7 56 4.0 SW 15 17 8 9 1017.8 1017.9 0.0
06/05:00pm 15.3 10.9 4.7 49 5.0 SW 17 26 9 14 1017.5 1017.6 0.0
06/04:30pm 16.8 11.9 5.1 46 5.7 SW 20 22 11 12 1017.2 1017.3 0.0
06/04:00pm 17.5 12.5 4.8 43 6.1 WSW 20 26 11 14 1017.0 1017.1 0.0
06/03:30pm 17.8 12.8 4.4 41 6.4 WSW 20 28 11 15 1016.8 1016.9 0.0
06/03:00pm 18.2 13.4 5.4 43 6.3 WSW 20 28 11 15 1016.8 1016.9 0.0
06/02:30pm 17.8 13.0 5.4 44 6.1 WSW 20 30 11 16 1016.8 1016.9 0.0
06/02:00pm 17.9 13.3 5.5 44 6.1 W 19 28 10 15 1016.9 1017.0 0.0
06/01:30pm 17.8 13.3 4.4 41 6.4 WSW 17 22 9 12 1017.2 1017.3 0.0
06/01:00pm 17.7 15.0 7.4 51 5.2 W 11 19 6 10 1017.4 1017.5 0.0
06/12:30pm 17.7 14.9 8.6 55 4.7 W 13 19 7 10 1018.1 1018.2 0.0
06/11:00am 15.8 13.7 8.1 60 3.9 NNW 9 15 5 8 1019.4 1019.5 0.0
06/10:00am 13.4 12.8 7.2 66 3.0 CALM 0 0 0 0 1020.2 1020.4 0.0
06/09:00am 9.6 8.8 6.3 80 1.5 CALM 0 0 0 0 1020.3 1020.5 0.0
06/08:00am 6.1 5.0 4.9 92 0.5 CALM 0 0 0 0 1019.8 1019.9 0.0
06/07:30am 4.2 2.8 3.6 96 0.3 CALM 0 0 0 0 1019.5 1019.6 0.0
06/07:00am 3.1 1.5 2.5 96 0.2 CALM 0 0 0 0 1019.5 1019.6 0.0
06/06:30am 3.2 1.6 2.6 96 0.2 CALM 0 0 0 0 1019.3 1019.4 0.0
06/05:30am 3.9 1.1 3.3 96 0.2 ENE 7 9 4 5 1019.0 1019.1 0.0
06/05:00am 3.8 0.6 3.1 95 0.3 E 9 9 5 5 1018.8 1018.9 0.0
06/04:30am 4.4 1.3 3.7 95 0.3 E 9 9 5 5 1018.9 1019.0 0.0
06/04:00am 4.1 0.9 3.1 93 0.4 E 9 11 5 6 1019.0 1019.1 0.0
06/03:30am 4.8 1.7 3.8 93 0.4 E 9 11 5 6 1019.1 1019.2 0.0
06/03:00am 4.9 1.4 3.7 92 0.5 E 11 13 6 7 1019.1 1019.2 0.0
06/02:30am 5.6 2.7 4.4 92 0.5 E 9 13 5 7 1019.3 1019.4 0.0
06/02:00am 6.2 2.5 4.7 90 0.7 NE 13 15 7 8 1019.5 1019.6 0.0
06/01:30am 5.9 2.7 4.9 93 0.4 ENE 11 15 6 8 1019.6 1019.7 0.0
06/01:00am 5.7 2.8 4.5 92 0.5 ENE 9 13 5 7 1019.9 1020.0 0.0
06/12:30am 6.0 3.5 5.0 93 0.4 ENE 7 11 4 6 1020.0 1020.2 0.0
06/12:00am 6.0 3.1 4.5 90 0.7 ESE 9 9 5 5 1020.0 1020.2 0.0
 
Date/Time
EST
Temp
°C
App
Temp
°C
Dew
Point
Rel
Hum
%
Delta-T
°C
Wind Press
QNH
hPa
Press
MSL
hPa
Rain
since 9 am
mm
Dir
 
Spd
km/h
Gust
km/h
Spd
kts
Gust
kts
05/11:30pm 6.5 5.4 5.0 90 0.7 CALM 0 0 0 0 1020.1 1020.3 0.0
05/11:00pm 6.8 5.6 4.6 86 1.0 CALM 0 0 0 0 1020.1 1020.3 0.0
05/10:30pm 8.4 7.6 6.4 87 0.9 CALM 0 0 0 0 1020.2 1020.4 0.0
05/10:00pm 8.9 6.8 6.5 85 1.1 E 7 9 4 5 1020.1 1020.3 0.0
05/09:30pm 9.6 7.2 7.2 85 1.1 E 9 11 5 6 1020.1 1020.3 0.0
05/09:00pm 9.4 6.6 6.8 84 1.2 ESE 11 13 6 7 1020.1 1020.3 0.0
05/08:30pm 9.6 8.8 6.7 82 1.4 CALM 0 0 0 0 1020.3 1020.5 0.0
05/08:00pm 10.3 8.8 6.8 79 1.7 S 4 7 2 4 1020.4 1020.6 0.0
05/07:30pm 11.0 10.3 7.1 77 1.9 CALM 0 0 0 0 1020.3 1020.5 0.0
05/07:00pm 11.2 10.5 6.9 75 2.1 CALM 0 0 0 0 1020.3 1020.5 0.0
05/06:30pm 12.1 10.9 6.4 68 2.7 S 2 6 1 3 1020.1 1020.3 0.0
05/06:00pm 13.7 10.9 6.8 63 3.4 SW 11 13 6 7 1020.1 1020.3 0.0
05/05:30pm 15.9 13.5 7.1 56 4.4 WSW 9 13 5 7 1019.7 1019.8 0.0
05/05:00pm 17.3 14.9 7.1 51 5.1 WSW 9 11 5 6 1019.6 1019.7 0.0
05/04:30pm 18.6 17.1 6.8 46 6.0 NNW 4 9 2 5 1019.5 1019.6 0.0
05/04:00pm 18.6 16.2 6.8 46 6.0 NNW 9 11 5 6 1019.4 1019.5 0.0
05/03:30pm 19.0 18.2 6.5 44 6.3 CALM 0 11 0 6 1019.8 1019.9 0.0
05/03:00pm 19.0 16.8 7.8 48 5.8 N 9 15 5 8 1019.6 1019.7 0.0
05/02:30pm 18.9 16.7 6.4 44 6.3 NNW 7 17 4 9 1019.7 1019.8 0.0
05/02:00pm 18.7 16.9 7.2 47 5.9 NNE 6 11 3 6 1020.0 1020.2 0.0
05/01:30pm 18.3 16.9 7.4 49 5.6 NE 4 11 2 6 1020.4 1020.6 0.0
05/01:00pm 18.5 16.4 8.2 51 5.3 NE 9 15 5 8 1020.8 1021.0 0.0
05/12:30pm 18.0 15.8 7.7 51 5.3 NE 9 13 5 7 1021.1 1021.3 0.0
05/12:00pm 17.1 16.5 7.5 53 4.9 CALM 0 7 0 4 1021.6 1021.7 0.0
05/11:30am 17.0 15.4 8.2 56 4.5 E 6 9 3 5 1022.2 1022.3 0.0
05/11:00am 16.1 14.4 8.3 60 4.0 ENE 7 11 4 6 1022.6 1022.7 0.0
05/10:30am 14.3 12.1 7.8 65 3.3 ESE 9 13 5 7 1022.9 1023.0 0.0
05/10:00am 12.7 10.3 7.2 69 2.7 E 9 11 5 6 1023.2 1023.3 0.0
05/09:30am 10.6 8.1 6.4 75 2.0 ESE 9 11 5 6 1023.3 1023.4 0.0
05/09:00am 10.6 7.6 6.0 73 2.1 E 11 13 6 7 1023.1 1023.2 0.0
05/08:30am 9.0 5.9 5.4 78 1.6 NE 11 13 6 7 1022.9 1023.0 0.0
05/08:00am 8.3 5.1 5.1 80 1.4 NE 11 15 6 8 1022.7 1022.8 0.0
05/07:30am 6.4 1.6 4.6 88 0.8 ENE 19 24 10 13 1022.5 1022.6 0.0
05/07:00am 5.7 0.6 4.0 89 0.7 ENE 20 26 11 14 1022.2 1022.3 0.0
05/06:30am 4.7 -1.3 3.5 92 0.5 ENE 24 28 13 15 1022.1 1022.2 0.0
05/06:00am 5.1 0.9 3.6 90 0.6 ENE 15 17 8 9 1022.1 1022.2 0.0
05/05:30am 5.3 1.1 4.0 91 0.6 E 15 19 8 10 1021.8 1021.9 0.0
05/05:00am 5.1 0.2 3.9 92 0.5 E 19 22 10 12 1021.5 1021.6 0.0
05/04:30am 5.3 2.7 4.0 91 0.6 E 7 9 4 5 1021.5 1021.6 0.0
05/04:00am 5.6 2.2 4.2 91 0.6 E 11 13 6 7 1021.6 1021.7 0.0
05/03:30am 5.7 2.7 4.2 90 0.6 ENE 9 9 5 5 1021.7 1021.8 0.0
05/03:00am 5.7 2.4 4.3 91 0.6 E 11 15 6 8 1021.7 1021.8 0.0
05/02:30am 5.5 2.5 4.0 90 0.6 E 9 11 5 6 1021.9 1022.0 0.0
05/02:00am 5.9 2.9 4.2 89 0.7 ESE 9 11 5 6 1022.1 1022.2 0.0
05/01:30am 6.5 3.2 4.8 89 0.7 ESE 11 13 6 7 1022.1 1022.2 0.0
05/01:00am 6.7 3.1 4.9 88 0.8 ESE 13 13 7 7 1022.2 1022.3 0.0
05/12:30am 7.2 4.4 5.0 86 1.0 ESE 9 11 5 6 1022.2 1022.3 0.0
05/12:00am 7.6 4.0 5.2 85 1.1 ESE 13 15 7 8 1022.4 1022.5 0.0
 
Date/Time
EST
Temp
°C
App
Temp
°C
Dew
Point
Rel
Hum
%
Delta-T
°C
Wind Press
QNH
hPa
Press
MSL
hPa
Rain
since 9 am
mm
Dir
 
Spd
km/h
Gust
km/h
Spd
kts
Gust
kts
04/11:30pm 7.7 4.6 5.7 87 0.9 ESE 11 15 6 8 1022.4 1022.5 0.0
04/11:00pm 7.7 5.0 5.5 86 1.0 SE 9 11 5 6 1022.6 1022.7 0.0
04/10:30pm 8.2 6.9 6.0 86 1.0 SSW 2 9 1 5 1022.6 1022.7 0.0
04/10:00pm 8.4 7.5 6.2 86 1.0 CALM 0 0 0 0 1022.4 1022.5 0.0
04/09:30pm 8.6 7.7 6.2 85 1.1 CALM 0 0 0 0 1022.6 1022.7 0.0
04/09:00pm 8.2 7.2 5.8 85 1.1 CALM 0 0 0 0 1022.7 1022.8 0.0
04/08:30pm 9.1 8.3 6.4 83 1.3 CALM 0 0 0 0 1022.6 1022.7 0.0
04/08:00pm 9.9 7.5 6.8 81 1.5 NNW 9 9 5 5 1022.5 1022.6 0.0
04/07:30pm 9.8 7.6 6.3 79 1.6 NNW 7 7 4 4 1022.4 1022.5 0.0
04/07:00pm 10.4 8.5 6.5 77 1.8 NNW 6 7 3 4 1022.4 1022.5 0.0
04/06:30pm 11.1 8.6 6.6 74 2.1 NW 9 9 5 5 1022.1 1022.2 0.0
04/06:00pm 11.9 9.7 6.2 68 2.7 NW 7 7 4 4 1021.9 1022.0 0.0
04/05:30pm 13.4 11.2 6.3 62 3.4 NW 7 7 4 4 1021.7 1021.8 0.0
04/05:00pm 15.8 13.2 6.3 53 4.7 NW 9 11 5 6 1021.6 1021.7 0.0
04/04:30pm 16.5 13.8 5.8 49 5.2 NW 9 13 5 7 1021.6 1021.7 0.0
04/04:00pm 17.3 14.3 6.2 48 5.5 NNW 11 13 6 7 1021.5 1021.6 0.0
04/03:30pm 17.2 14.9 5.8 47 5.6 NNW 7 15 4 8 1021.6 1021.7 0.0
04/03:00pm 17.3 14.5 5.3 45 5.8 NNE 9 15 5 8 1021.7 1021.8 0.0
04/02:30pm 17.7 14.6 5.6 45 5.9 NNE 11 15 6 8 1021.9 1022.0 0.0
04/02:00pm 16.7 13.5 5.3 47 5.5 NNE 11 15 6 8 1022.1 1022.2 0.0
04/01:30pm 16.8 14.4 5.4 47 5.5 N 7 17 4 9 1022.5 1022.6 0.0
04/01:00pm 16.9 14.5 7.0 52 5.0 N 9 13 5 7 1022.9 1023.0 0.0
04/12:30pm 16.2 14.7 6.6 53 4.8 N 4 9 2 5 1023.4 1023.5 0.0
04/12:00pm 15.9 15.2 7.1 56 4.4 CALM 0 4 0 2 1024.1 1024.3 0.0
04/11:30am 15.5 13.5 7.3 58 4.1 N 7 13 4 7 1024.8 1025.0 0.0
04/11:00am 14.2 11.3 6.6 60 3.7 NNE 11 17 6 9 1025.0 1025.2 0.0
04/10:30am 12.9 9.7 6.7 66 3.0 NNE 13 15 7 8 1025.3 1025.5 0.0
04/10:00am 12.2 9.4 6.9 70 2.6 NE 11 15 6 8 1025.5 1025.7 0.0
04/09:30am 10.5 7.5 6.1 74 2.1 ENE 11 13 6 7 1025.5 1025.7 0.0
04/09:00am 8.6 5.5 5.7 82 1.3 ENE 11 13 6 7 1025.5 1025.7 0.2
04/08:30am 6.6 2.9 4.4 86 1.0 E 13 15 7 8 1025.2 1025.4 0.2
04/08:00am 5.2 1.4 3.7 90 0.6 E 13 17 7 9 1025.1 1025.3 0.2
04/07:30am 3.2 0.4 2.3 94 0.4 ENE 6 9 3 5 1024.8 1025.0 0.2
04/07:00am 2.6 -0.4 1.7 94 0.4 ENE 7 9 4 5 1024.4 1024.6 0.2
04/06:30am 3.2 -0.1 2.3 94 0.4 ENE 9 13 5 7 1024.0 1024.2 0.2
04/06:00am 2.6 -0.8 1.6 93 0.4 NE 9 11 5 6 1023.9 1024.1 0.2
04/05:30am 3.4 -0.2 2.7 95 0.3 NE 11 15 6 8 1023.8 1023.9 0.2
04/05:00am 2.5 -0.6 1.3 92 0.5 E 7 9 4 5 1023.6 1023.7 0.2
04/04:30am 3.6 0.9 2.4 92 0.5 E 6 7 3 4 1023.6 1023.7 0.2
04/04:00am 4.1 0.5 2.8 91 0.5 E 11 13 6 7 1023.5 1023.6 0.2
04/03:30am 3.6 0.7 2.4 92 0.5 E 7 11 4 6 1023.3 1023.4 0.2
04/03:00am 4.2 2.7 2.9 91 0.5 CALM 0 6 0 3 1023.3 1023.4 0.2
04/02:30am 4.3 0.8 3.3 93 0.4 E 11 13 6 7 1023.6 1023.7 0.2
04/02:00am 3.1 0.7 2.2 94 0.4 ESE 4 9 2 5 1023.7 1023.8 0.2
04/01:30am 3.1 1.1 2.1 93 0.4 S 2 7 1 4 1024.1 1024.3 0.2
04/01:00am 4.8 3.4 3.5 91 0.5 CALM 0 0 0 0 1024.2 1024.4 0.2
04/12:30am 4.6 3.1 2.9 89 0.7 CALM 0 0 0 0 1024.3 1024.5 0.2
04/12:00am 4.8 1.5 2.7 86 0.9 E 9 11 5 6 1024.3 1024.5 0.2
 
Date/Time
EST
Temp
°C
App
Temp
°C
Dew
Point
Rel
Hum
%
Delta-T
°C
Wind Press
QNH
hPa
Press
MSL
hPa
Rain
since 9 am
mm
Dir
 
Spd
km/h
Gust
km/h
Spd
kts
Gust
kts
03/11:30pm 5.5 3.0 4.0 90 0.6 ESE 6 9 3 5 1024.5 1024.7 0.2
03/11:00pm 5.0 1.8 3.2 88 0.7 SSE 9 11 5 6 1024.4 1024.6 0.2
03/10:30pm 5.2 2.0 3.2 87 0.8 S 9 9 5 5 1024.5 1024.7 0.2
03/10:00pm 5.2 2.4 2.9 85 0.9 SW 7 9 4 5 1024.8 1025.0 0.2
03/09:30pm 6.1 3.0 3.6 84 1.1 S 9 9 5 5 1024.8 1025.0 0.2
03/09:00pm 6.4 3.3 3.6 82 1.2 SSW 9 9 5 5 1024.7 1024.9 0.2
03/08:30pm 6.3 3.7 3.1 80 1.4 S 6 9 3 5 1024.5 1024.7 0.2
03/08:00pm 7.1 4.3 3.3 77 1.6 SSW 7 9 4 5 1024.4 1024.6 0.2

Other Formats:

Comma delimited format used in spreadsheet applications
http://www.bom.gov.au/fwo/IDN60801/IDN60801.95527.axf

JavaScript Object Notation format (JSON) in row-major order
http://www.bom.gov.au/fwo/IDN60801/IDN60801.95527.json